createdAt,value
2022-09-25T00:01:04.360Z,74.95
2022-09-25T00:03:31.644Z,75.47
2022-09-25T00:06:09.157Z,75.91
2022-09-25T00:08:36.818Z,75.92
2022-09-25T00:11:12.266Z,75.40
2022-09-25T00:13:40.435Z,75.31
2022-09-25T00:16:10.417Z,74.90
2022-09-25T00:18:55.685Z,74.54
2022-09-25T00:21:22.485Z,74.47
2022-09-25T00:23:49.725Z,74.39
2022-09-25T00:26:17.027Z,74.67
2022-09-25T00:28:44.194Z,74.40
2022-09-25T00:31:13.222Z,74.08
2022-09-25T00:33:39.773Z,73.82
2022-09-25T00:36:08.610Z,73.54
2022-09-25T00:38:37.019Z,73.79
2022-09-25T00:41:06.399Z,73.92
2022-09-25T00:43:42.214Z,73.72
2022-09-25T00:46:13.778Z,73.50
2022-09-25T00:48:50.201Z,73.44
2022-09-25T00:51:21.197Z,73.56
2022-09-25T00:53:49.148Z,73.37
2022-09-25T00:56:16.669Z,72.94
2022-09-25T00:58:43.818Z,72.95
2022-09-25T01:01:11.156Z,72.32
2022-09-25T01:03:40.123Z,71.58
2022-09-25T01:06:06.796Z,71.58
2022-09-25T01:08:34.893Z,71.67
2022-09-25T01:11:01.747Z,71.12
2022-09-25T01:13:29.825Z,71.34
2022-09-25T01:16:13.976Z,71.09
2022-09-25T01:18:55.801Z,70.54
2022-09-25T01:21:43.388Z,71.09
2022-09-25T01:24:21.988Z,71.15
2022-09-25T01:27:24.360Z,70.70
2022-09-25T01:30:02.410Z,70.77
2022-09-25T01:32:33.163Z,70.95
2022-09-25T01:35:12.653Z,71.14
2022-09-25T01:37:45.551Z,71.25
2022-09-25T01:40:24.424Z,71.36
2022-09-25T01:43:11.741Z,70.87
2022-09-25T01:46:03.060Z,70.58
2022-09-25T01:48:32.498Z,70.31
2022-09-25T01:51:07.532Z,70.82
2022-09-25T01:53:47.968Z,70.27
2022-09-25T01:56:25.299Z,70.35
2022-09-25T01:59:06.146Z,70.96
2022-09-25T02:01:38.825Z,71.28
2022-09-25T02:04:12.543Z,71.53
2022-09-25T02:06:43.774Z,70.80
2022-09-25T02:09:17.667Z,70.41
2022-09-25T02:11:48.424Z,70.64
2022-09-25T02:14:23.326Z,70.49
2022-09-25T02:16:56.219Z,70.54
2022-09-25T02:19:42.500Z,70.44
2022-09-25T02:22:19.781Z,70.21
2022-09-25T02:24:59.409Z,70.48
2022-09-25T02:27:27.904Z,70.32
2022-09-25T02:29:55.808Z,70.22
2022-09-25T02:32:28.590Z,70.18
2022-09-25T02:34:56.519Z,70.52
2022-09-25T02:37:23.628Z,70.22
2022-09-25T02:39:54.293Z,70.55
2022-09-25T02:42:59.179Z,70.99
2022-09-25T02:45:51.142Z,70.07
2022-09-25T02:48:44.008Z,70.56
2022-09-25T02:51:35.242Z,69.68
2022-09-25T02:54:16.171Z,69.78
2022-09-25T02:57:03.767Z,69.57
2022-09-25T02:59:36.365Z,69.52
2022-09-25T03:02:03.977Z,69.62
2022-09-25T03:04:35.539Z,69.83
2022-09-25T03:07:02.709Z,69.58
2022-09-25T03:09:34.722Z,69.33
2022-09-25T03:12:03.536Z,69.25
2022-09-25T03:14:30.282Z,69.04
2022-09-25T03:16:59.031Z,69.31
2022-09-25T03:19:28.501Z,68.98
2022-09-25T03:21:55.640Z,69.44
2022-09-25T03:24:22.626Z,69.43
2022-09-25T03:26:49.323Z,69.43
2022-09-25T03:29:17.289Z,69.68
2022-09-25T03:31:45.369Z,69.86
2022-09-25T03:34:13.946Z,69.84
2022-09-25T03:36:41.013Z,70.25
2022-09-25T03:39:10.606Z,69.38
2022-09-25T03:41:37.505Z,70.32
2022-09-25T03:44:04.388Z,69.93
2022-09-25T03:46:34.016Z,70.49
2022-09-25T03:49:01.552Z,70.24
2022-09-25T03:51:29.910Z,70.17
2022-09-25T03:53:56.566Z,70.30
2022-09-25T03:56:25.649Z,70.29
2022-09-25T03:58:54.251Z,70.21
2022-09-25T04:01:21.955Z,70.45
2022-09-25T04:03:49.827Z,70.42
2022-09-25T04:06:19.007Z,69.94
2022-09-25T04:08:46.997Z,70.50
2022-09-25T04:11:15.551Z,70.30
2022-09-25T04:13:44.062Z,70.46
2022-09-25T04:16:12.470Z,70.64
2022-09-25T04:18:40.617Z,70.27
2022-09-25T04:21:08.625Z,70.37
2022-09-25T04:23:36.482Z,70.05
2022-09-25T04:26:04.159Z,69.78
2022-09-25T04:28:34.034Z,69.98
2022-09-25T04:31:00.934Z,69.41
2022-09-25T04:33:45.984Z,70.38
2022-09-25T04:36:12.782Z,70.83
2022-09-25T04:38:39.384Z,71.11
2022-09-25T04:41:06.110Z,71.40
2022-09-25T04:43:33.822Z,71.39
2022-09-25T04:46:05.811Z,71.32
2022-09-25T04:48:33.279Z,70.94
2022-09-25T04:51:00.757Z,71.10
2022-09-25T04:53:29.906Z,70.79
2022-09-25T04:56:13.838Z,70.74
2022-09-25T04:58:45.909Z,70.67
2022-09-25T05:01:12.530Z,70.56
2022-09-25T05:03:39.168Z,70.46
2022-09-25T05:06:05.845Z,70.23
2022-09-25T05:08:32.446Z,70.53
2022-09-25T05:10:59.018Z,70.10
2022-09-25T05:13:25.592Z,70.19
2022-09-25T05:15:52.223Z,70.13
2022-09-25T05:18:21.275Z,70.22
2022-09-25T05:20:48.986Z,70.54
2022-09-25T05:23:16.589Z,70.56
2022-09-25T05:25:43.240Z,70.50
2022-09-25T05:28:10.356Z,70.35
2022-09-25T05:30:38.774Z,70.61
2022-09-25T05:33:05.540Z,70.92
2022-09-25T05:35:33.270Z,70.95
2022-09-25T05:37:59.841Z,70.69
2022-09-25T05:40:27.012Z,70.93
2022-09-25T05:42:55.152Z,70.99
2022-09-25T05:45:23.289Z,70.76
2022-09-25T05:47:59.135Z,70.47
2022-09-25T05:50:26.045Z,70.62
2022-09-25T05:53:03.487Z,70.33
2022-09-25T05:55:30.885Z,70.27
2022-09-25T05:58:04.657Z,70.42
2022-09-25T06:00:34.998Z,70.31
2022-09-25T06:03:02.307Z,69.81
2022-09-25T06:05:28.970Z,70.20
2022-09-25T06:07:55.865Z,69.84
2022-09-25T06:10:22.782Z,70.10
2022-09-25T06:12:49.391Z,70.60
2022-09-25T06:15:16.119Z,70.11
2022-09-25T06:17:42.726Z,70.43
2022-09-25T06:20:15.857Z,70.13
2022-09-25T06:22:47.255Z,70.41
2022-09-25T06:25:15.740Z,70.52
2022-09-25T06:27:42.290Z,69.97
2022-09-25T06:30:09.272Z,69.85
2022-09-25T06:32:35.800Z,70.40
2022-09-25T06:35:02.438Z,70.52
2022-09-25T06:37:29.001Z,70.61
2022-09-25T06:39:55.583Z,70.41
2022-09-25T06:42:22.180Z,70.39
2022-09-25T06:44:48.784Z,70.53
2022-09-25T06:47:18.841Z,70.85
2022-09-25T06:49:46.739Z,70.23
2022-09-25T06:52:13.308Z,70.20
2022-09-25T06:54:44.016Z,70.38
2022-09-25T06:57:12.617Z,70.19
2022-09-25T06:59:40.300Z,69.89
2022-09-25T07:02:42.469Z,70.15
2022-09-25T07:05:09.294Z,69.79
2022-09-25T07:07:36.083Z,69.76
2022-09-25T07:10:02.671Z,69.59
2022-09-25T07:12:29.245Z,69.72
2022-09-25T07:14:56.440Z,69.25
2022-09-25T07:17:23.142Z,69.36
2022-09-25T07:19:49.893Z,69.66
2022-09-25T07:22:18.542Z,69.51
2022-09-25T07:24:45.406Z,69.40
2022-09-25T07:27:12.109Z,69.05
2022-09-25T07:29:38.800Z,69.55
2022-09-25T07:32:05.828Z,69.19
2022-09-25T07:34:35.069Z,68.72
2022-09-25T07:37:01.961Z,68.86
2022-09-25T07:39:28.832Z,68.66
2022-09-25T07:41:55.563Z,68.43
2022-09-25T07:44:29.000Z,68.43
2022-09-25T07:46:56.727Z,67.73
2022-09-25T07:49:23.986Z,68.08
2022-09-25T07:51:50.532Z,67.58
2022-09-25T07:54:17.066Z,67.20
2022-09-25T07:56:43.623Z,67.08
2022-09-25T07:59:10.186Z,66.94
2022-09-25T08:01:41.227Z,66.45
2022-09-25T08:04:10.312Z,66.21
2022-09-25T08:06:38.508Z,65.89
2022-09-25T08:09:10.092Z,64.54
2022-09-25T08:11:38.243Z,63.08
2022-09-25T08:14:05.110Z,62.04
2022-09-25T08:16:32.018Z,61.49
2022-09-25T08:18:58.601Z,61.44
2022-09-25T08:21:25.545Z,61.29
2022-09-25T08:23:54.244Z,61.04
2022-09-25T08:26:22.522Z,61.02
2022-09-25T08:28:50.613Z,60.70
2022-09-25T08:31:17.777Z,59.52
2022-09-25T08:33:46.423Z,58.47
2022-09-25T08:36:13.052Z,57.91
2022-09-25T08:38:39.718Z,57.93
2022-09-25T08:41:25.986Z,57.91
2022-09-25T08:43:58.679Z,59.04
2022-09-25T08:47:04.348Z,59.05
2022-09-25T08:49:43.592Z,59.47
2022-09-25T08:52:17.023Z,60.34
2022-09-25T08:54:45.800Z,60.47
2022-09-25T08:57:27.666Z,61.28
2022-09-25T09:00:02.200Z,60.99
2022-09-25T09:02:42.346Z,61.26
2022-09-25T09:05:41.751Z,61.59
2022-09-25T09:08:20.144Z,61.92
2022-09-25T09:10:54.286Z,62.07
2022-09-25T09:13:31.339Z,61.81
2022-09-25T09:16:15.867Z,61.57
2022-09-25T09:18:43.888Z,62.22
2022-09-25T09:21:22.503Z,62.77
2022-09-25T09:24:10.555Z,62.68
2022-09-25T09:26:37.053Z,63.18
2022-09-25T09:29:23.892Z,63.33
2022-09-25T09:32:01.392Z,63.65
2022-09-25T09:35:04.147Z,64.38
2022-09-25T09:38:01.114Z,64.69
2022-09-25T09:40:55.925Z,64.66
2022-09-25T09:43:56.545Z,64.35
2022-09-25T09:46:45.946Z,64.27
2022-09-25T09:49:16.235Z,64.03
2022-09-25T09:51:52.671Z,64.08
2022-09-25T09:54:40.853Z,63.97
2022-09-25T09:57:18.911Z,63.77
2022-09-25T09:59:50.643Z,62.87
2022-09-25T10:02:43.050Z,61.57
2022-09-25T10:05:23.463Z,60.04
2022-09-25T10:07:51.310Z,60.18
2022-09-25T10:10:19.817Z,60.50
2022-09-25T10:12:52.121Z,61.07
2022-09-25T10:15:29.928Z,61.64
2022-09-25T10:17:59.876Z,61.65
2022-09-25T10:20:50.594Z,62.11
2022-09-25T10:23:39.059Z,61.91
2022-09-25T10:26:40.000Z,62.05
2022-09-25T10:29:09.649Z,62.45
2022-09-25T10:31:39.602Z,61.93
2022-09-25T10:34:21.080Z,60.82
2022-09-25T10:36:53.565Z,59.32
2022-09-25T10:39:45.275Z,58.77
2022-09-25T10:42:36.449Z,58.17
2022-09-25T10:45:36.150Z,58.01
2022-09-25T10:48:40.058Z,57.36
2022-09-25T10:51:08.862Z,56.81
2022-09-25T10:53:35.759Z,56.61
2022-09-25T10:56:09.435Z,55.69
2022-09-25T10:58:47.838Z,53.71
2022-09-25T11:01:16.885Z,52.09
2022-09-25T11:03:56.580Z,51.12
2022-09-25T11:06:23.021Z,50.05
2022-09-25T11:08:59.551Z,49.92
2022-09-25T11:11:26.958Z,50.61
2022-09-25T11:14:04.301Z,51.07
2022-09-25T11:17:00.186Z,50.18
2022-09-25T11:19:32.501Z,49.94
2022-09-25T11:22:08.687Z,47.53
2022-09-25T11:24:47.083Z,41.92
2022-09-25T11:27:19.646Z,37.63
2022-09-25T11:29:55.052Z,36.20
2022-09-25T11:32:29.503Z,36.23
2022-09-25T11:35:19.836Z,36.74
2022-09-25T11:38:11.076Z,35.74
2022-09-25T11:40:58.444Z,32.64
2022-09-25T11:43:57.095Z,32.45
2022-09-25T11:46:24.533Z,32.70
2022-09-25T11:49:00.927Z,34.24
2022-09-25T11:51:58.436Z,34.54
2022-09-25T11:54:48.292Z,37.40
2022-09-25T11:57:45.660Z,39.07
2022-09-25T12:00:49.642Z,40.58
2022-09-25T12:03:35.214Z,41.14
2022-09-25T12:06:14.322Z,41.75
2022-09-25T12:09:15.310Z,42.65
2022-09-25T12:12:11.584Z,44.23
2022-09-25T12:14:56.656Z,45.39
2022-09-25T12:17:42.649Z,46.35
2022-09-25T12:20:21.741Z,48.40
2022-09-25T12:23:19.344Z,48.90
2022-09-25T12:26:17.415Z,49.88
2022-09-25T12:29:19.297Z,50.44
2022-09-25T12:32:06.523Z,50.75
2022-09-25T12:34:44.997Z,50.86
2022-09-25T12:37:29.097Z,50.50
2022-09-25T12:40:00.000Z,50.21
2022-09-25T12:42:45.050Z,50.22
2022-09-25T12:45:21.884Z,49.92
2022-09-25T12:48:07.271Z,49.48
2022-09-25T12:50:49.027Z,50.16
2022-09-25T12:53:23.572Z,51.79
2022-09-25T12:55:56.167Z,53.52
2022-09-25T12:58:49.119Z,56.44
2022-09-25T13:01:19.104Z,57.16
2022-09-25T13:03:55.132Z,58.24
2022-09-25T13:06:50.223Z,59.04
2022-09-25T13:09:19.820Z,58.27
2022-09-25T13:11:51.962Z,58.13
2022-09-25T13:14:39.988Z,57.40
2022-09-25T13:17:11.169Z,57.04
2022-09-25T13:19:38.065Z,57.13
2022-09-25T13:22:10.251Z,56.95
2022-09-25T13:24:43.164Z,57.21
2022-09-25T13:27:15.776Z,56.70
2022-09-25T13:29:43.218Z,57.11
2022-09-25T13:32:20.052Z,57.13
2022-09-25T13:34:47.078Z,57.22
2022-09-25T13:37:16.069Z,57.53
2022-09-25T13:40:06.451Z,56.66
2022-09-25T13:42:32.963Z,56.49
2022-09-25T13:45:07.729Z,56.18
2022-09-25T13:47:38.280Z,56.63
2022-09-25T13:50:10.626Z,56.24
2022-09-25T13:52:40.133Z,56.89
2022-09-25T13:55:22.160Z,56.57
2022-09-25T13:57:58.352Z,56.44
2022-09-25T14:00:26.863Z,56.02
2022-09-25T14:03:01.711Z,55.59
2022-09-25T14:05:35.426Z,56.09
2022-09-25T14:08:16.950Z,56.17
2022-09-25T14:10:51.022Z,56.27
2022-09-25T14:13:21.814Z,56.04
2022-09-25T14:15:48.663Z,56.65
2022-09-25T14:18:24.772Z,56.08
2022-09-25T14:20:58.053Z,55.55
2022-09-25T14:23:33.359Z,55.08
2022-09-25T14:26:02.413Z,54.80
2022-09-25T14:28:31.518Z,54.25
2022-09-25T14:31:14.512Z,53.62
2022-09-25T14:34:04.450Z,53.89
2022-09-25T14:36:50.546Z,53.71
2022-09-25T14:39:44.680Z,53.09
2022-09-25T14:42:45.996Z,51.43
2022-09-25T14:45:14.035Z,50.80
2022-09-25T14:47:44.598Z,50.85
2022-09-25T14:50:25.933Z,49.69
2022-09-25T14:52:59.544Z,49.62
2022-09-25T14:55:32.849Z,49.62
2022-09-25T14:58:01.753Z,50.18
2022-09-25T15:00:29.265Z,50.35
2022-09-25T15:02:58.309Z,50.36
2022-09-25T15:05:29.632Z,50.90
2022-09-25T15:07:59.923Z,50.90
2022-09-25T15:10:33.469Z,51.59
2022-09-25T15:13:20.684Z,51.67
2022-09-25T15:16:09.867Z,52.02
2022-09-25T15:18:42.283Z,51.09
2022-09-25T15:21:21.392Z,51.30
2022-09-25T15:23:48.632Z,51.72
2022-09-25T15:26:18.455Z,51.88
2022-09-25T15:28:45.928Z,51.96
2022-09-25T15:31:12.925Z,51.60
2022-09-25T15:33:40.786Z,52.41
2022-09-25T15:36:22.413Z,52.26
2022-09-25T15:38:54.414Z,52.68
2022-09-25T15:41:22.728Z,52.37
2022-09-25T15:43:54.033Z,52.65
2022-09-25T15:46:35.527Z,52.67
2022-09-25T15:49:03.374Z,53.02
2022-09-25T15:51:33.468Z,52.93
2022-09-25T15:54:03.385Z,53.75
2022-09-25T15:56:45.297Z,53.35
2022-09-25T15:59:25.548Z,53.79
2022-09-25T16:02:11.454Z,53.90
2022-09-25T16:04:39.137Z,54.44
2022-09-25T16:07:27.900Z,53.94
2022-09-25T16:09:59.782Z,54.22
2022-09-25T16:12:27.340Z,54.80
2022-09-25T16:14:55.305Z,55.01
2022-09-25T16:17:29.561Z,55.34
2022-09-25T16:20:25.068Z,54.91
2022-09-25T16:22:54.715Z,54.40
2022-09-25T16:25:33.067Z,54.83
2022-09-25T16:28:10.861Z,55.58
2022-09-25T16:30:37.806Z,55.62
2022-09-25T16:33:17.330Z,55.63
2022-09-25T16:36:10.276Z,55.61
2022-09-25T16:38:41.502Z,55.50
2022-09-25T16:41:14.557Z,55.48
2022-09-25T16:43:41.147Z,55.27
2022-09-25T16:46:17.467Z,54.94
2022-09-25T16:48:46.381Z,54.89
2022-09-25T16:51:24.098Z,55.40
2022-09-25T16:53:52.394Z,55.35
2022-09-25T16:56:29.982Z,55.03
2022-09-25T16:58:58.215Z,55.50
2022-09-25T17:01:27.059Z,55.80
2022-09-25T17:03:55.652Z,55.60
2022-09-25T17:06:26.262Z,55.87
2022-09-25T17:08:53.459Z,55.75
2022-09-25T17:11:22.072Z,56.04
2022-09-25T17:13:50.024Z,56.08
2022-09-25T17:16:17.143Z,56.53
2022-09-25T17:18:43.780Z,56.05
2022-09-25T17:21:14.312Z,56.56
2022-09-25T17:23:41.093Z,56.20
2022-09-25T17:26:21.088Z,56.19
2022-09-25T17:28:49.441Z,55.97
2022-09-25T17:31:22.881Z,56.05
2022-09-25T17:33:50.155Z,55.68
2022-09-25T17:36:17.087Z,55.93
2022-09-25T17:38:43.879Z,56.27
2022-09-25T17:41:26.014Z,56.28
2022-09-25T17:43:52.781Z,56.59
2022-09-25T17:46:20.209Z,56.26
2022-09-25T17:48:51.633Z,56.33
2022-09-25T17:51:23.513Z,56.31
2022-09-25T17:53:50.745Z,56.50
2022-09-25T17:56:17.348Z,56.77
2022-09-25T17:58:44.602Z,57.07
2022-09-25T18:01:22.295Z,56.99
2022-09-25T18:03:49.801Z,56.84
2022-09-25T18:06:16.385Z,57.32
2022-09-25T18:08:44.500Z,57.90
2022-09-25T18:11:12.770Z,58.04
2022-09-25T18:13:41.794Z,58.09
2022-09-25T18:16:19.177Z,58.10
2022-09-25T18:19:05.057Z,57.90
2022-09-25T18:21:50.217Z,58.46
2022-09-25T18:24:17.347Z,58.88
2022-09-25T18:26:45.293Z,58.90
2022-09-25T18:29:16.886Z,58.90
2022-09-25T18:31:45.092Z,59.26
2022-09-25T18:34:12.140Z,59.49
2022-09-25T18:36:38.775Z,59.56
2022-09-25T18:39:05.511Z,59.86
2022-09-25T18:41:36.262Z,59.65
2022-09-25T18:44:03.097Z,59.64
2022-09-25T18:46:29.817Z,59.53
2022-09-25T18:48:59.429Z,59.64
2022-09-25T18:51:26.033Z,59.35
2022-09-25T18:53:52.795Z,59.76
2022-09-25T18:56:20.613Z,59.25
2022-09-25T18:58:47.585Z,59.01
2022-09-25T19:01:14.363Z,59.23
2022-09-25T19:03:43.084Z,58.90
2022-09-25T19:06:09.954Z,58.59
2022-09-25T19:08:37.006Z,59.20
2022-09-25T19:11:12.282Z,59.02
2022-09-25T19:13:38.932Z,58.96
2022-09-25T19:16:07.858Z,58.99
2022-09-25T19:18:34.876Z,58.97
2022-09-25T19:21:01.906Z,59.26
2022-09-25T19:23:28.636Z,58.77
2022-09-25T19:25:59.130Z,59.05
2022-09-25T19:28:26.873Z,58.78
2022-09-25T19:31:00.681Z,58.49
2022-09-25T19:33:33.292Z,58.75
2022-09-25T19:36:05.208Z,58.48
2022-09-25T19:38:37.115Z,58.75
2022-09-25T19:41:10.784Z,58.81
2022-09-25T19:43:37.478Z,58.87
2022-09-25T19:46:04.602Z,58.43
2022-09-25T19:48:32.335Z,58.63
2022-09-25T19:50:58.928Z,58.58
2022-09-25T19:53:25.511Z,58.57
2022-09-25T19:55:54.914Z,58.31
2022-09-25T19:58:25.293Z,58.83
2022-09-25T20:00:53.425Z,58.37
2022-09-25T20:03:20.259Z,58.12
2022-09-25T20:05:49.216Z,58.58
2022-09-25T20:08:16.359Z,58.23
2022-09-25T20:10:43.390Z,59.05
2022-09-25T20:13:10.320Z,58.54
2022-09-25T20:15:37.120Z,58.63
2022-09-25T20:18:03.844Z,59.29
2022-09-25T20:20:30.576Z,59.52
2022-09-25T20:22:57.540Z,59.73
2022-09-25T20:25:27.945Z,59.65
2022-09-25T20:27:54.780Z,59.50
2022-09-25T20:30:24.296Z,59.72
2022-09-25T20:32:52.232Z,59.97
2022-09-25T20:35:19.548Z,59.70
2022-09-25T20:37:49.004Z,59.58
2022-09-25T20:40:15.843Z,59.65
2022-09-25T20:42:42.834Z,59.72
2022-09-25T20:45:10.913Z,59.92
2022-09-25T20:47:45.101Z,59.53
2022-09-25T20:50:12.893Z,59.66
2022-09-25T20:52:39.989Z,59.69
2022-09-25T20:55:07.122Z,60.16
2022-09-25T20:57:34.034Z,59.85
2022-09-25T21:00:02.037Z,60.13
2022-09-25T21:02:29.399Z,59.85
2022-09-25T21:04:56.955Z,59.74
2022-09-25T21:07:25.525Z,59.38
2022-09-25T21:09:53.330Z,58.95
2022-09-25T21:12:21.426Z,58.80
2022-09-25T21:14:49.100Z,58.63
2022-09-25T21:17:16.041Z,58.38
2022-09-25T21:19:42.739Z,58.30
2022-09-25T21:22:09.850Z,58.22
2022-09-25T21:24:36.536Z,58.64
2022-09-25T21:27:03.108Z,58.87
2022-09-25T21:29:31.871Z,58.97
2022-09-25T21:31:58.610Z,59.41
2022-09-25T21:34:26.499Z,59.22
2022-09-25T21:36:53.154Z,59.15
2022-09-25T21:39:21.167Z,59.10
2022-09-25T21:41:48.650Z,59.34
2022-09-25T21:44:16.919Z,59.33
2022-09-25T21:46:43.936Z,59.41
2022-09-25T21:49:19.323Z,59.93
2022-09-25T21:51:46.844Z,60.01
2022-09-25T21:54:14.924Z,60.44
2022-09-25T21:56:42.083Z,60.07
2022-09-25T21:59:09.633Z,60.32
2022-09-25T22:01:38.600Z,59.94
2022-09-25T22:04:06.703Z,60.77
2022-09-25T22:06:52.297Z,60.62
2022-09-25T22:09:21.754Z,61.21
2022-09-25T22:11:48.988Z,61.20
2022-09-25T22:14:16.772Z,61.35
2022-09-25T22:16:45.939Z,61.58
2022-09-25T22:19:27.606Z,61.60
2022-09-25T22:21:56.188Z,61.89
2022-09-25T22:24:23.374Z,61.99
2022-09-25T22:26:51.635Z,62.51
2022-09-25T22:29:20.486Z,62.43
2022-09-25T22:31:48.159Z,62.57
2022-09-25T22:34:21.357Z,63.13
2022-09-25T22:36:49.255Z,62.70
2022-09-25T22:39:18.546Z,63.54
2022-09-25T22:41:48.817Z,63.20
2022-09-25T22:44:15.485Z,63.45
2022-09-25T22:46:42.143Z,63.70
2022-09-25T22:49:08.774Z,63.68
2022-09-25T22:51:35.411Z,64.01
2022-09-25T22:54:01.973Z,63.90
2022-09-25T22:56:30.528Z,63.74
2022-09-25T22:59:03.230Z,63.59
2022-09-25T23:01:42.724Z,63.36
2022-09-25T23:04:14.953Z,63.63
2022-09-25T23:06:41.857Z,63.50
2022-09-25T23:09:12.919Z,63.65
2022-09-25T23:11:39.727Z,63.79
2022-09-25T23:14:16.490Z,63.10
2022-09-25T23:16:44.965Z,63.48
2022-09-25T23:19:12.427Z,63.79
2022-09-25T23:21:39.488Z,63.82
2022-09-25T23:24:08.707Z,64.11
2022-09-25T23:26:35.448Z,64.25
2022-09-25T23:29:02.138Z,64.44
2022-09-25T23:31:30.441Z,64.38
2022-09-25T23:33:59.756Z,64.75
2022-09-25T23:36:27.749Z,64.81
2022-09-25T23:38:56.116Z,65.18
2022-09-25T23:41:24.210Z,64.92
2022-09-25T23:43:52.028Z,65.56
2022-09-25T23:46:21.419Z,65.49
2022-09-25T23:48:48.282Z,65.76
2022-09-25T23:51:16.227Z,65.70
2022-09-25T23:53:43.653Z,65.94
2022-09-25T23:56:13.356Z,65.76
2022-09-25T23:58:40.112Z,66.55
